Terminal Aerodrome Forecast
Issued by NWS Grand Rapids, MI

Home | Current Version | Previous Version | Text Only | Print | Product List | Glossary On
Versions: 1 2 3 4 5 6 7 8 9 10 11 12 13 14 15 16 17 18 19 20 21
000
FTUS43 KGRR 011100
TAFGRR
TAF
KGRR 011140Z 0112/0212 19004KT 4SM BR SCT250
     FM011300 25004KT P6SM SCT120
     FM011700 24008KT P6SM VCSH FEW040
     FM020100 VRB05KT P6SM SKC=

USA.gov is the U.S. government's official web portal to all federal, state and local government web resources and services.